Monastir Skanes, Tunisie

03:25 CET le 24 septembre 2014 (GMT +0100)
Habib Bourguiba | Change Station
CLOSE
Current Station
Aéroport
Location: Habib Bourguiba,
Altitude: 7 ft
Stations météo à proximité

Alt. 7 ft 35.76 °N, 10.75 °E | Updated 25 minutes ago

Scattered Clouds
Nuages épars
77 ° F
Paraît 77 ° F
N
7
Vent Variable Vent de NE

Aujourd'hui
Haut(e) -- | Bas -- ° F
--% Risque de précip.
Hier
Haut(e) -- | Bas -- ° F
Precip. -- pouce
6:06 AM 6:11 PM
Lune descendante, 0% visible
Pression 30.01 pouce
Visibilité 5.0 Miles terrestres
Nuages Nuages épars 2000 ft
Point de rosée 66 ° F
Humidité 69%
Précipitations 0.00 pouce
Profondeur de la couche neigeuse Non disponible.
UV 0 sur 12
Pollen Non disponible.
Qualité de l'air Non disponible.
Flu Activity Non disponible.
METAR DTMB 240200Z 04006KT 8000 SCT020 25/19 Q1016 NOSIG

More Conditions Fewer Conditions

Pression 30.01 pouce
Visibilité 5.0 Miles terrestres
Nuages Nuages épars 2000 ft
Point de rosée 66 ° F
Humidité 69%
Précipitations 0.00 pouce
Profondeur de la couche neigeuse Non disponible.
UV 0 sur 12
Pollen Non disponible.
Qualité de l'air Non disponible.
Flu Activity Non disponible.
METAR DTMB 240200Z 04006KT 8000 SCT020 25/19 Q1016 NOSIG

More Conditions Fewer Conditions

10-Day Weather Forecast

Almanac

Astronomie

Sep. 24, 2014 Lever Coucher
Temps réel 06:06 CET 18:11 CET
Crépuscule civil 05:40 CET 18:36 CET
Crépuscule nautique 05:11 CET 19:06 CET
Crépuscule astronomique 04:41 CET 19:36 CET
Lune 06:10 CET 18:14 CET
Durée de lumière visible 12h 55m
Longueur du jour
12h 05m
Tomorrow will be 2m 15s shorter.
Lune descendante, 0% of the Moon is Illuminated
Sep 23
Lune descendante
Sep 24
Nouveau
Oct 1
Premier quartier
Oct 8
Pleine lune
Oct 15
Dernier quartier

Les extrêmes de température d’hier

Country Highs Country Lows

Community

WunderPhotos

Upload Photos

1,755,860 Photos téléchargées !

Nearby

Qualité de l'air

Not available.

Épaisseur de neige

Not available.

Activité sismique

Ville Distance Mag. Time & Date
No recent earthquake activity has been reported nearby.
Minimum magnitude displayed is 2.5.

Températures des eaux côtières

Lieu Température
Aucun rapport de station

Stations météo à proximité